Time;durP1;ratioP1;P1;durP2;ratioP2;P2;SDS_P1;SDS_P2;PMS_P1;PMS_P2;Temp;Humidity;BMP_temperature;BMP_pressure;BME280_temperature;BME280_humidity;BME280_pressure;Samples;Min_cycle;Max_cycle;Signal;HPM_P1;HPM_P2
2023/06/14 00:00:20;;;;;;;2.47;1.37;;;15.30;51.50;;;;;;5003039;28;20181;-66
2023/06/14 00:02:48;;;;;;;2.70;1.20;;;15.20;50.60;;;;;;5005778;28;20194;-66
2023/06/14 00:05:15;;;;;;;3.77;1.43;;;15.30;50.70;;;;;;5005078;28;20182;-65
2023/06/14 00:07:43;;;;;;;5.00;1.57;;;15.30;50.50;;;;;;5005184;28;20241;-66
2023/06/14 00:10:14;;;;;;;4.17;1.50;;;15.40;51.00;;;;;;5000828;28;20233;-66
2023/06/14 00:12:42;;;;;;;7.13;1.53;;;15.50;50.80;;;;;;5001299;28;20192;-66
2023/06/14 00:15:09;;;;;;;7.90;1.73;;;15.60;50.90;;;;;;5003405;28;21035;-66
2023/06/14 00:17:38;;;;;;;4.80;1.30;;;15.70;49.70;;;;;;5000289;28;20186;-67
2023/06/14 00:20:06;;;;;;;3.40;1.67;;;15.80;49.00;;;;;;5008918;28;20200;-67
2023/06/14 00:22:36;;;;;;;2.00;1.20;;;15.80;48.90;;;;;;5007889;28;20209;-66
2023/06/14 00:25:04;;;;;;;4.03;1.10;;;15.90;48.90;;;;;;5008732;28;20194;-66
2023/06/14 00:27:31;;;;;;;2.27;0.83;;;15.80;47.70;;;;;;5003497;28;20186;-67
2023/06/14 00:29:58;;;;;;;1.07;0.80;;;15.80;45.90;;;;;;5008678;28;20186;-66
2023/06/14 00:32:27;;;;;;;3.13;0.87;;;15.80;45.70;;;;;;5009580;28;20245;-68
2023/06/14 00:34:55;;;;;;;3.13;0.97;;;15.80;46.10;;;;;;4987860;28;20217;-66
2023/06/14 00:37:23;;;;;;;2.93;1.00;;;15.90;45.60;;;;;;5006030;28;20190;-67
2023/06/14 00:39:50;;;;;;;2.17;0.87;;;15.90;45.50;;;;;;5000975;28;20233;-66
2023/06/14 00:42:28;;;;;;;5.03;1.13;;;15.90;45.50;;;;;;5002533;28;20541;-66
2023/06/14 00:44:55;;;;;;;3.83;1.10;;;16.00;46.00;;;;;;5003875;28;20269;-67
2023/06/14 00:47:23;;;;;;;4.20;0.97;;;16.10;45.00;;;;;;5006193;28;20178;-66
2023/06/14 00:49:52;;;;;;;5.03;0.90;;;16.20;44.60;;;;;;5003200;28;20648;-66
2023/06/14 00:52:19;;;;;;;1.03;0.83;;;16.30;43.90;;;;;;4998512;28;20488;-67
2023/06/14 00:54:47;;;;;;;2.93;0.90;;;16.20;44.20;;;;;;4999300;28;20198;-65
2023/06/14 00:57:14;;;;;;;2.83;1.40;;;16.20;43.80;;;;;;4995592;28;20182;-66
2023/06/14 00:59:45;;;;;;;2.03;0.90;;;16.30;44.10;;;;;;5000165;28;20186;-67
2023/06/14 01:02:17;;;;;;;2.47;1.00;;;16.40;43.70;;;;;;5003335;28;20267;-65
2023/06/14 01:04:50;;;;;;;6.23;1.00;;;16.60;43.70;;;;;;5003743;28;20192;-65
2023/06/14 01:07:35;;;;;;;3.50;1.00;;;16.70;43.80;;;;;;4995669;28;20191;-68
2023/06/14 01:10:11;;;;;;;2.17;0.90;;;16.70;42.30;;;;;;5004036;28;20914;-67
2023/06/14 01:13:01;;;;;;;2.53;0.82;;;16.70;42.30;;;;;;5005162;28;20410;-67
2023/06/14 01:15:32;;;;;;;2.93;0.90;;;16.80;42.20;;;;;;4984306;28;20236;-66
2023/06/14 01:18:16;;;;;;;1.43;0.90;;;16.80;42.40;;;;;;5009684;28;20178;-67
2023/06/14 01:20:47;;;;;;;3.50;1.00;;;17.00;42.40;;;;;;5012399;28;20723;-67
2023/06/14 01:23:15;;;;;;;1.53;0.80;;;17.10;42.40;;;;;;5002234;28;20220;-67
2023/06/14 01:25:44;;;;;;;3.47;1.00;;;17.10;41.90;;;;;;5007134;28;20268;-66
2023/06/14 01:28:12;;;;;;;3.33;1.03;;;17.20;41.80;;;;;;5007255;28;20190;-66
2023/06/14 01:30:45;;;;;;;1.87;0.80;;;17.30;41.90;;;;;;5013038;28;20190;-69
2023/06/14 01:33:23;;;;;;;1.47;0.70;;;17.40;40.90;;;;;;5007836;28;20199;-66
2023/06/14 01:35:52;;;;;;;2.93;1.10;;;17.30;40.50;;;;;;5008443;28;20656;-66
2023/06/14 01:38:23;;;;;;;1.33;0.70;;;17.50;40.50;;;;;;5008869;28;20189;-66
2023/06/14 01:40:53;;;;;;;1.03;0.90;;;17.70;40.10;;;;;;5008916;28;20267;-67
2023/06/14 01:43:21;;;;;;;2.47;1.00;;;17.80;39.30;;;;;;5002395;28;20268;-66
2023/06/14 01:45:51;;;;;;;1.33;0.80;;;17.80;38.80;;;;;;5008890;28;20184;-68
2023/06/14 01:48:19;;;;;;;2.73;0.80;;;18.00;39.40;;;;;;5001096;28;20222;-66
2023/06/14 01:50:46;;;;;;;4.20;0.80;;;17.90;37.60;;;;;;5003140;28;20181;-67
2023/06/14 01:53:13;;;;;;;2.27;1.13;;;18.10;37.60;;;;;;5008851;28;20556;-66
2023/06/14 01:55:43;;;;;;;4.23;0.90;;;18.20;38.30;;;;;;5003951;28;20201;-69
2023/06/14 01:58:11;;;;;;;2.83;0.87;;;18.30;37.20;;;;;;5001471;28;20193;-69
2023/06/14 02:00:38;;;;;;;3.67;0.70;;;18.30;36.90;;;;;;4994601;28;20522;-69
2023/06/14 02:03:06;;;;;;;2.20;0.90;;;18.00;36.00;;;;;;5003365;28;20193;-66
2023/06/14 02:05:34;;;;;;;0.70;0.60;;;17.90;37.00;;;;;;5008417;28;20188;-67
2023/06/14 02:08:02;;;;;;;4.23;0.90;;;18.20;37.20;;;;;;5007370;28;20604;-67
2023/06/14 02:10:29;;;;;;;1.83;0.77;;;18.30;37.60;;;;;;5006426;28;20277;-67
2023/06/14 02:12:57;;;;;;;1.80;0.80;;;18.60;37.30;;;;;;5002522;28;20200;-68
2023/06/14 02:15:24;;;;;;;1.40;0.80;;;18.70;36.60;;;;;;5005596;28;20284;-66
2023/06/14 02:17:51;;;;;;;1.67;0.90;;;18.40;36.10;;;;;;5009641;28;20183;-68
2023/06/14 02:20:19;;;;;;;3.77;0.83;;;18.50;36.40;;;;;;5004250;28;20259;-68
2023/06/14 02:22:46;;;;;;;2.60;1.00;;;18.40;36.20;;;;;;5008368;28;20185;-68
2023/06/14 02:25:15;;;;;;;3.27;1.10;;;18.60;35.60;;;;;;5006295;28;20221;-67
2023/06/14 02:27:42;;;;;;;3.00;0.70;;;18.80;35.50;;;;;;5002211;28;20185;-68
2023/06/14 02:30:10;;;;;;;1.60;0.90;;;18.30;33.60;;;;;;5003608;28;20178;-68
2023/06/14 02:32:38;;;;;;;2.70;0.70;;;18.30;34.20;;;;;;5004525;28;20264;-65
2023/06/14 02:35:06;;;;;;;5.33;0.97;;;18.30;34.00;;;;;;5005927;28;20236;-68
2023/06/14 02:37:33;;;;;;;1.10;0.73;;;18.30;33.90;;;;;;5004023;28;20650;-68
2023/06/14 02:40:01;;;;;;;1.80;0.70;;;18.00;34.40;;;;;;5004501;28;20244;-68
2023/06/14 02:42:28;;;;;;;7.20;1.30;;;17.90;34.30;;;;;;5004882;28;20181;-70
2023/06/14 02:44:55;;;;;;;2.67;1.00;;;17.90;34.70;;;;;;5004888;28;20576;-68
2023/06/14 02:47:24;;;;;;;1.57;0.63;;;18.00;34.40;;;;;;5000582;28;20560;-68
2023/06/14 02:49:51;;;;;;;2.07;0.73;;;18.10;34.60;;;;;;5007560;28;20196;-67
2023/06/14 02:52:20;;;;;;;3.40;1.07;;;18.10;35.00;;;;;;5009891;28;20249;-67
2023/06/14 02:54:47;;;;;;;2.53;0.83;;;18.30;34.70;;;;;;5007196;28;20566;-68
2023/06/14 02:57:15;;;;;;;2.43;0.90;;;18.50;34.50;;;;;;4999555;28;20198;-68
2023/06/14 02:59:42;;;;;;;2.77;0.80;;;18.30;33.30;;;;;;5004216;28;20526;-68
2023/06/14 03:02:10;;;;;;;3.50;1.33;;;18.20;34.20;;;;;;5001070;28;20188;-68
2023/06/14 03:04:37;;;;;;;4.77;1.07;;;18.30;34.00;;;;;;5003283;28;20207;-68
2023/06/14 03:07:19;;;;;;;2.83;1.20;;;18.30;33.80;;;;;;5000188;28;20567;-67
2023/06/14 03:09:47;;;;;;;3.07;1.00;;;18.30;33.30;;;;;;5005235;28;20681;-69
2023/06/14 03:12:14;;;;;;;2.30;0.97;;;18.20;33.20;;;;;;5005244;28;20648;-67
2023/06/14 03:14:43;;;;;;;4.97;0.93;;;18.20;32.50;;;;;;5000794;28;20236;-66
2023/06/14 03:17:10;;;;;;;3.37;0.77;;;18.10;32.60;;;;;;5004115;28;20194;-67
2023/06/14 03:19:38;;;;;;;2.20;0.90;;;18.20;33.00;;;;;;5010833;28;20649;-67
2023/06/14 03:22:07;;;;;;;2.90;0.70;;;18.20;33.10;;;;;;5006121;28;20189;-69
2023/06/14 03:24:36;;;;;;;2.50;0.90;;;18.30;32.70;;;;;;5003143;28;20189;-67
2023/06/14 03:27:04;;;;;;;1.50;0.77;;;18.50;33.10;;;;;;5004277;28;20188;-68
2023/06/14 03:29:32;;;;;;;1.10;1.00;;;18.40;31.90;;;;;;5005923;28;20181;-68
2023/06/14 03:32:03;;;;;;;2.93;0.93;;;18.50;31.60;;;;;;5005578;28;20286;-67
2023/06/14 03:34:30;;;;;;;1.77;0.77;;;18.60;31.50;;;;;;5001498;28;20296;-67
2023/06/14 03:36:58;;;;;;;2.57;0.80;;;18.80;31.00;;;;;;5004747;28;20192;-67
2023/06/14 03:39:25;;;;;;;2.80;0.90;;;19.10;31.10;;;;;;4998228;28;20194;-67
2023/06/14 03:41:53;;;;;;;2.10;0.90;;;19.20;31.50;;;;;;5007787;28;20276;-68
2023/06/14 03:44:21;;;;;;;2.30;0.97;;;19.60;31.00;;;;;;5003717;28;20186;-68
2023/06/14 03:46:48;;;;;;;4.07;0.80;;;19.60;30.70;;;;;;5006558;28;20193;-68
2023/06/14 03:49:16;;;;;;;1.70;0.70;;;19.70;30.80;;;;;;5008036;28;20709;-68
2023/06/14 03:51:44;;;;;;;3.47;0.83;;;19.70;30.30;;;;;;5000055;28;20262;-67
2023/06/14 03:54:12;;;;;;;2.50;0.80;;;19.70;30.30;;;;;;5002454;28;20296;-68
2023/06/14 03:56:39;;;;;;;3.03;0.70;;;19.50;29.80;;;;;;5001753;28;20702;-66
2023/06/14 03:59:06;;;;;;;3.03;1.00;;;19.30;30.10;;;;;;5007470;28;20700;-67
2023/06/14 04:01:33;;;;;;;1.30;0.70;;;19.60;29.60;;;;;;5003130;28;20208;-68
2023/06/14 04:04:01;;;;;;;2.23;0.83;;;19.50;30.00;;;;;;4999768;28;20185;-67
2023/06/14 04:06:32;;;;;;;3.43;0.87;;;19.40;30.20;;;;;;5006730;28;20190;-67
2023/06/14 04:09:03;;;;;;;2.37;0.90;;;19.60;29.80;;;;;;4999679;28;20185;-67
2023/06/14 04:11:31;;;;;;;3.03;0.73;;;19.70;29.80;;;;;;5005996;28;20220;-69
2023/06/14 04:13:59;;;;;;;2.30;1.00;;;20.00;29.40;;;;;;5001123;28;20735;-67
2023/06/14 04:16:27;;;;;;;2.37;0.80;;;19.80;28.20;;;;;;5004099;28;20220;-69
2023/06/14 04:18:57;;;;;;;2.87;0.90;;;19.80;28.50;;;;;;4999947;28;20181;-67
2023/06/14 04:21:27;;;;;;;3.47;0.93;;;20.20;28.70;;;;;;5002398;28;20225;-68
2023/06/14 04:23:55;;;;;;;2.70;0.80;;;19.80;28.30;;;;;;5003786;28;20185;-66
2023/06/14 04:26:29;;;;;;;2.90;0.93;;;20.00;28.20;;;;;;5005328;28;20203;-68
2023/06/14 04:29:01;;;;;;;2.03;0.80;;;20.20;28.20;;;;;;5001670;28;20200;-67
2023/06/14 04:31:33;;;;;;;2.67;0.70;;;20.00;27.90;;;;;;5003392;28;20193;-67
2023/06/14 04:34:01;;;;;;;3.47;0.70;;;19.90;28.10;;;;;;4999035;28;20232;-66
2023/06/14 04:36:28;;;;;;;1.90;0.70;;;19.70;28.50;;;;;;5005723;28;20182;-67
2023/06/14 04:38:55;;;;;;;2.50;0.87;;;20.10;28.20;;;;;;5002492;28;20272;-67
2023/06/14 04:41:28;;;;;;;1.90;0.80;;;20.30;28.40;;;;;;5005656;28;20744;-67
2023/06/14 04:43:57;;;;;;;2.30;0.87;;;20.30;28.50;;;;;;5005599;28;20182;-68
2023/06/14 04:46:24;;;;;;;2.83;1.10;;;20.20;27.90;;;;;;5003280;28;20181;-66
2023/06/14 04:48:52;;;;;;;3.33;1.20;;;20.50;28.20;;;;;;5009177;28;20247;-66
2023/06/14 04:51:22;;;;;;;1.00;0.70;;;20.50;28.10;;;;;;5006245;28;20275;-67
2023/06/14 04:53:49;;;;;;;1.17;0.60;;;20.60;27.90;;;;;;5009886;28;20205;-67
2023/06/14 04:56:16;;;;;;;3.13;0.80;;;21.00;27.60;;;;;;5004354;28;20174;-67
2023/06/14 04:58:44;;;;;;;3.87;0.90;;;20.90;27.00;;;;;;5007828;28;20182;-67
2023/06/14 05:01:12;;;;;;;4.30;0.70;;;20.50;27.00;;;;;;5004151;28;20189;-68
2023/06/14 05:03:41;;;;;;;1.00;0.70;;;20.60;27.40;;;;;;5009673;28;20219;-69
2023/06/14 05:06:08;;;;;;;2.10;0.90;;;20.60;27.60;;;;;;5006151;28;20209;-68
2023/06/14 05:08:35;;;;;;;2.97;0.83;;;20.70;27.20;;;;;;5004803;28;20192;-67
2023/06/14 05:11:03;;;;;;;4.83;0.90;;;20.80;27.80;;;;;;5001317;28;20166;-67
2023/06/14 05:13:32;;;;;;;2.00;0.93;;;21.10;27.10;;;;;;5006682;28;20637;-67
2023/06/14 05:16:00;;;;;;;2.73;1.10;;;21.20;26.90;;;;;;5003057;28;20552;-67
2023/06/14 05:18:28;;;;;;;1.60;0.90;;;21.30;26.70;;;;;;5002582;28;20189;-67
2023/06/14 05:20:55;;;;;;;4.17;0.97;;;20.70;27.20;;;;;;5006496;28;20193;-66
2023/06/14 05:23:22;;;;;;;1.67;1.10;;;20.70;27.70;;;;;;5006831;28;20652;-66
2023/06/14 05:25:50;;;;;;;4.53;1.10;;;20.90;27.60;;;;;;5004039;28;20204;-66
2023/06/14 05:28:17;;;;;;;2.87;1.00;;;20.80;27.80;;;;;;5006990;28;20186;-66
2023/06/14 05:30:44;;;;;;;3.17;0.90;;;20.80;27.60;;;;;;5005476;28;20182;-65
2023/06/14 05:33:12;;;;;;;1.70;0.73;;;20.80;27.60;;;;;;5005529;28;20204;-68
2023/06/14 05:35:39;;;;;;;0.90;0.70;;;20.80;27.50;;;;;;5005526;28;20201;-68
2023/06/14 05:38:07;;;;;;;1.30;0.90;;;20.90;27.30;;;;;;5009308;28;20185;-67
2023/06/14 05:40:34;;;;;;;1.80;0.97;;;21.30;26.70;;;;;;5009092;28;20229;-67
2023/06/14 05:43:02;;;;;;;3.97;1.00;;;20.60;27.00;;;;;;5006801;28;20263;-68
2023/06/14 05:45:29;;;;;;;1.50;0.80;;;20.60;27.00;;;;;;5002851;28;20188;-66
2023/06/14 05:47:57;;;;;;;1.33;0.90;;;20.20;27.30;;;;;;5004227;28;20640;-68
2023/06/14 05:50:24;;;;;;;2.90;0.80;;;20.20;27.60;;;;;;5005791;28;20178;-66
2023/06/14 05:52:51;;;;;;;3.83;0.93;;;20.10;27.50;;;;;;5005505;28;20211;-67
2023/06/14 05:55:19;;;;;;;2.27;0.90;;;20.40;28.00;;;;;;5008598;28;20726;-67
2023/06/14 05:57:47;;;;;;;1.73;0.80;;;20.40;27.70;;;;;;5004054;28;20205;-68
2023/06/14 06:00:15;;;;;;;3.13;0.80;;;20.30;28.00;;;;;;5002506;28;21206;-69
2023/06/14 06:02:47;;;;;;;2.83;1.70;;;19.90;28.80;;;;;;5005582;28;20243;-68
2023/06/14 06:05:17;;;;;;;5.23;1.00;;;19.70;29.00;;;;;;5007742;28;20561;-66
2023/06/14 06:07:45;;;;;;;1.73;0.80;;;18.90;30.50;;;;;;5006989;28;20185;-66
2023/06/14 06:10:12;;;;;;;2.00;0.70;;;18.50;30.60;;;;;;5006147;28;20181;-68
2023/06/14 06:12:41;;;;;;;3.13;1.20;;;18.10;31.20;;;;;;5010049;28;20188;-67
2023/06/14 06:15:11;;;;;;;3.50;0.90;;;17.80;31.90;;;;;;5002522;28;20234;-67
2023/06/14 06:17:39;;;;;;;1.70;0.97;;;17.70;31.90;;;;;;5000183;28;20539;-67
2023/06/14 06:20:08;;;;;;;2.27;0.97;;;17.60;32.40;;;;;;5007358;28;20236;-67
2023/06/14 06:22:35;;;;;;;3.80;0.90;;;17.40;32.70;;;;;;5002931;28;20265;-66
2023/06/14 06:25:03;;;;;;;2.47;0.90;;;17.50;32.80;;;;;;5001745;28;20556;-67
2023/06/14 06:27:30;;;;;;;4.53;1.23;;;17.40;33.30;;;;;;5010030;28;20231;-65
2023/06/14 06:29:57;;;;;;;2.97;1.33;;;17.20;33.10;;;;;;5002039;28;20649;-66
2023/06/14 06:32:25;;;;;;;4.90;1.17;;;17.00;33.60;;;;;;4998752;28;20536;-66
2023/06/14 06:34:52;;;;;;;4.43;1.10;;;16.90;33.80;;;;;;5005810;28;20227;-65
2023/06/14 06:37:19;;;;;;;3.17;1.17;;;16.80;34.40;;;;;;5003134;28;20192;-65
2023/06/14 06:39:47;;;;;;;3.17;1.17;;;16.70;34.60;;;;;;5007677;28;20219;-65
2023/06/14 06:42:14;;;;;;;4.57;1.10;;;16.70;35.00;;;;;;5001243;28;20216;-68
2023/06/14 06:44:42;;;;;;;5.47;1.10;;;16.50;35.10;;;;;;5005493;28;20216;-67
2023/06/14 06:47:11;;;;;;;3.97;1.20;;;16.50;35.20;;;;;;5002251;28;20185;-67
2023/06/14 06:49:38;;;;;;;4.23;0.93;;;16.40;35.50;;;;;;5007253;28;20182;-65
2023/06/14 06:52:07;;;;;;;3.00;1.27;;;16.30;35.80;;;;;;5007996;28;20195;-66
2023/06/14 06:54:35;;;;;;;2.43;1.20;;;16.20;35.80;;;;;;5000433;28;20206;-65
2023/06/14 06:57:02;;;;;;;2.30;0.90;;;16.10;35.60;;;;;;5007838;28;20191;-68
2023/06/14 06:59:30;;;;;;;3.43;1.27;;;16.00;35.80;;;;;;5006142;28;20247;-66
2023/06/14 07:01:57;;;;;;;3.83;1.40;;;16.00;35.60;;;;;;5002342;28;20182;-67
2023/06/14 07:04:24;;;;;;;2.93;1.00;;;16.00;35.60;;;;;;5005918;28;20209;-67
2023/06/14 07:06:52;;;;;;;1.77;1.23;;;15.90;35.70;;;;;;5002801;28;20201;-66
2023/06/14 07:09:19;;;;;;;2.70;1.10;;;15.80;36.10;;;;;;5002671;28;20193;-65
2023/06/14 07:11:49;;;;;;;3.27;1.03;;;15.70;36.20;;;;;;5001907;28;20640;-66
2023/06/14 07:14:16;;;;;;;2.73;1.40;;;15.70;36.60;;;;;;5001946;28;20240;-67
2023/06/14 07:16:43;;;;;;;2.90;1.33;;;15.60;36.70;;;;;;5004257;28;20739;-66
2023/06/14 07:19:11;;;;;;;2.03;1.10;;;15.50;37.00;;;;;;5007671;28;20207;-66
2023/06/14 07:21:38;;;;;;;4.00;1.43;;;15.50;37.50;;;;;;5005744;28;20597;-66
2023/06/14 07:24:07;;;;;;;6.67;1.23;;;15.30;37.90;;;;;;5008595;28;20205;-65
2023/06/14 07:26:35;;;;;;;4.93;1.20;;;15.30;38.10;;;;;;5005127;28;20299;-66
2023/06/14 07:29:03;;;;;;;6.07;1.43;;;15.20;37.70;;;;;;5001615;28;20376;-67
2023/06/14 07:31:30;;;;;;;5.07;1.20;;;15.20;37.90;;;;;;5003177;28;20185;-67
2023/06/14 07:33:57;;;;;;;4.10;1.63;;;15.20;38.00;;;;;;5001539;28;20205;-66
2023/06/14 07:36:25;;;;;;;4.73;1.43;;;15.10;38.30;;;;;;5003919;28;20177;-67
2023/06/14 07:38:52;;;;;;;5.63;1.63;;;15.00;39.10;;;;;;5006510;28;20177;-68
2023/06/14 07:41:20;;;;;;;2.13;1.33;;;14.90;39.10;;;;;;5008509;28;20224;-67
2023/06/14 07:43:47;;;;;;;3.93;1.43;;;14.80;39.40;;;;;;5002868;28;20185;-66
2023/06/14 07:46:15;;;;;;;4.10;1.50;;;14.80;39.60;;;;;;5002853;28;20204;-66
2023/06/14 07:48:43;;;;;;;3.97;1.70;;;14.70;39.80;;;;;;5001745;28;20196;-66
2023/06/14 07:51:10;;;;;;;2.57;1.37;;;14.70;40.00;;;;;;5004696;28;20182;-67
2023/06/14 07:53:38;;;;;;;2.40;1.50;;;14.70;39.70;;;;;;5001049;28;20677;-67
2023/06/14 07:56:05;;;;;;;4.57;1.67;;;14.70;39.80;;;;;;4999305;28;20198;-68
2023/06/14 07:58:33;;;;;;;2.83;1.23;;;14.70;39.90;;;;;;5004081;28;20227;-66
2023/06/14 08:01:03;;;;;;;4.00;1.57;;;14.80;40.00;;;;;;5007124;28;20197;-66
2023/06/14 08:03:31;;;;;;;2.80;1.47;;;14.70;39.90;;;;;;5005862;28;20539;-66
2023/06/14 08:05:58;;;;;;;2.70;1.10;;;14.80;39.80;;;;;;4999305;28;20194;-67
2023/06/14 08:08:26;;;;;;;3.27;1.47;;;14.80;39.80;;;;;;5001128;28;20256;-66
2023/06/14 08:10:53;;;;;;;1.43;1.17;;;14.70;40.10;;;;;;5007291;28;20192;-67
2023/06/14 08:13:20;;;;;;;4.40;1.37;;;14.60;40.50;;;;;;4998675;28;20181;-67
2023/06/14 08:15:48;;;;;;;4.73;1.67;;;14.50;40.70;;;;;;5002987;28;20197;-67
2023/06/14 08:18:15;;;;;;;3.03;1.33;;;14.50;41.10;;;;;;5005171;28;20182;-66
2023/06/14 08:20:43;;;;;;;6.33;1.67;;;14.40;41.10;;;;;;5005850;28;20193;-66
2023/06/14 08:23:11;;;;;;;3.60;1.40;;;14.30;41.40;;;;;;4998761;28;20225;-66
2023/06/14 08:25:38;;;;;;;5.90;1.83;;;14.30;41.60;;;;;;5006709;28;20185;-67
2023/06/14 08:28:06;;;;;;;2.60;1.47;;;14.20;41.70;;;;;;5002290;28;20201;-67
2023/06/14 08:30:33;;;;;;;4.80;1.50;;;14.30;41.70;;;;;;5006149;28;20228;-67
2023/06/14 08:33:00;;;;;;;3.97;1.73;;;14.20;41.60;;;;;;5003410;28;20193;-66
2023/06/14 08:35:28;;;;;;;2.67;1.77;;;14.20;42.00;;;;;;5004488;28;20215;-67
2023/06/14 08:37:55;;;;;;;6.20;2.70;;;14.20;42.00;;;;;;5000819;28;20217;-66
2023/06/14 08:40:24;;;;;;;5.30;2.37;;;14.20;42.60;;;;;;5003488;28;20230;-67
2023/06/14 08:42:53;;;;;;;6.57;2.00;;;14.10;42.80;;;;;;5000213;28;20174;-67
2023/06/14 08:45:21;;;;;;;7.10;2.60;;;14.00;42.70;;;;;;4998801;28;20189;-67
2023/06/14 08:47:57;;;;;;;7.53;2.50;;;14.00;42.80;;;;;;5001169;28;20495;-67
2023/06/14 08:50:27;;;;;;;3.73;2.27;;;13.90;43.00;;;;;;5006341;28;20188;-66
2023/06/14 08:53:02;;;;;;;4.83;1.93;;;13.80;43.30;;;;;;4989270;28;20200;-67
2023/06/14 08:55:32;;;;;;;9.33;1.80;;;13.80;43.50;;;;;;5002755;28;20308;-66
2023/06/14 08:58:00;;;;;;;2.90;1.73;;;13.80;43.40;;;;;;5002435;28;20305;-67
2023/06/14 09:00:28;;;;;;;3.50;1.50;;;13.80;43.50;;;;;;5003982;28;20193;-66
2023/06/14 09:02:57;;;;;;;3.07;1.63;;;13.70;43.40;;;;;;4995892;28;20192;-66
2023/06/14 09:05:29;;;;;;;4.27;1.90;;;13.70;43.70;;;;;;5004957;28;20182;-66
2023/06/14 09:08:00;;;;;;;3.23;1.67;;;13.70;43.70;;;;;;4998702;28;20180;-67
2023/06/14 09:10:28;;;;;;;1.80;1.33;;;13.70;43.90;;;;;;5005516;28;20189;-69
2023/06/14 09:12:56;;;;;;;4.80;1.70;;;13.70;44.10;;;;;;4995913;28;20629;-67
2023/06/14 09:15:24;;;;;;;4.30;1.50;;;13.60;44.40;;;;;;5003443;28;20241;-67
2023/06/14 09:17:51;;;;;;;3.57;1.60;;;13.60;44.40;;;;;;5004790;28;20177;-67
2023/06/14 09:20:18;;;;;;;2.83;1.60;;;13.60;44.70;;;;;;5006421;28;20648;-67
2023/06/14 09:22:46;;;;;;;3.07;1.30;;;13.60;44.70;;;;;;5003938;28;20647;-68
2023/06/14 09:25:15;;;;;;;6.30;1.90;;;13.60;44.60;;;;;;5003888;28;20193;-65
2023/06/14 09:27:43;;;;;;;4.00;1.40;;;13.60;44.90;;;;;;4998761;28;20678;-65
2023/06/14 09:30:11;;;;;;;2.70;1.30;;;13.50;45.10;;;;;;5001000;28;20281;-65
2023/06/14 09:32:39;;;;;;;3.80;1.67;;;13.50;45.20;;;;;;5006415;28;20177;-66
2023/06/14 09:35:10;;;;;;;3.33;2.00;;;13.30;45.30;;;;;;5004092;28;20220;-67
2023/06/14 09:37:38;;;;;;;3.23;1.47;;;13.30;45.80;;;;;;5006136;28;20540;-67
2023/06/14 09:40:07;;;;;;;3.20;1.40;;;13.30;46.20;;;;;;5005386;28;20225;-67
2023/06/14 09:42:36;;;;;;;2.63;1.50;;;13.20;46.40;;;;;;5009438;28;20590;-68
2023/06/14 09:45:05;;;;;;;3.30;1.60;;;13.20;46.40;;;;;;5006018;28;20185;-66
2023/06/14 09:47:33;;;;;;;4.03;1.70;;;13.20;46.30;;;;;;5001871;28;20189;-66
2023/06/14 09:50:00;;;;;;;3.27;1.30;;;13.20;46.50;;;;;;5007104;28;20719;-68
2023/06/14 09:52:29;;;;;;;2.63;1.40;;;13.10;46.60;;;;;;5006539;28;20181;-65
2023/06/14 09:54:59;;;;;;;2.23;1.60;;;13.10;46.50;;;;;;5005653;28;20271;-64
2023/06/14 09:57:29;;;;;;;4.90;1.97;;;13.00;47.00;;;;;;5004162;28;20201;-66
2023/06/14 10:00:01;;;;;;;5.47;1.80;;;13.00;46.70;;;;;;5007575;28;20188;-65
2023/06/14 10:02:34;;;;;;;3.60;1.73;;;13.00;47.00;;;;;;4990551;28;20177;-66
2023/06/14 10:05:09;;;;;;;1.67;1.50;;;13.00;47.30;;;;;;5009359;28;20198;-67
2023/06/14 10:07:48;;;;;;;2.97;1.50;;;12.90;47.10;;;;;;5003111;28;20192;-66
2023/06/14 10:10:16;;;;;;;3.73;1.80;;;12.90;47.10;;;;;;5008383;28;20243;-65
2023/06/14 10:12:43;;;;;;;3.70;1.67;;;12.90;47.50;;;;;;5006767;28;20185;-66
2023/06/14 10:15:15;;;;;;;5.60;1.80;;;12.80;47.50;;;;;;5004065;28;20217;-65
2023/06/14 10:17:56;;;;;;;4.20;1.83;;;12.80;47.40;;;;;;5001139;28;20251;-65
2023/06/14 10:20:40;;;;;;;4.80;1.90;;;12.80;47.60;;;;;;5007837;28;20177;-66
2023/06/14 10:23:25;;;;;;;5.77;1.90;;;12.70;47.90;;;;;;5003692;28;20227;-65
2023/06/14 10:25:59;;;;;;;2.77;2.13;;;12.70;48.00;;;;;;5000105;28;20219;-65
2023/06/14 10:28:27;;;;;;;2.43;1.77;;;12.60;48.40;;;;;;5008215;28;20235;-66
2023/06/14 10:31:13;;;;;;;5.17;2.07;;;12.60;48.80;;;;;;5002588;28;20260;-65
2023/06/14 10:33:50;;;;;;;4.33;1.90;;;12.50;49.10;;;;;;5000503;28;20213;-65
2023/06/14 10:36:28;;;;;;;6.10;2.23;;;12.40;49.40;;;;;;5005779;28;20659;-66
2023/06/14 10:39:11;;;;;;;4.37;1.63;;;12.30;49.60;;;;;;5004048;28;20201;-65
2023/06/14 10:41:40;;;;;;;4.20;1.70;;;12.30;49.90;;;;;;5004689;28;20197;-66
2023/06/14 10:44:33;;;;;;;4.90;1.87;;;12.30;49.80;;;;;;4999249;28;20193;-65
2023/06/14 10:47:01;;;;;;;3.03;1.80;;;12.30;49.90;;;;;;5004424;28;20295;-66
2023/06/14 10:49:48;;;;;;;3.57;2.10;;;12.30;49.80;;;;;;5006534;28;20207;-66
2023/06/14 10:52:18;;;;;;;3.70;1.77;;;12.30;50.30;;;;;;5009369;28;20697;-65
2023/06/14 10:55:09;;;;;;;5.00;1.83;;;12.30;50.50;;;;;;5001811;28;20266;-65
2023/06/14 10:57:38;;;;;;;5.63;2.00;;;12.30;50.20;;;;;;5004829;28;20550;-65
2023/06/14 11:00:16;;;;;;;3.57;1.90;;;12.20;50.70;;;;;;5004107;28;20252;-65
2023/06/14 11:03:13;;;;;;;3.80;1.97;;;12.20;50.50;;;;;;5008678;28;20218;-65
2023/06/14 11:05:52;;;;;;;4.37;1.60;;;12.20;51.10;;;;;;5004482;28;20249;-66
2023/06/14 11:08:53;;;;;;;4.30;2.07;;;12.00;51.30;;;;;;5002931;28;20189;-65
2023/06/14 11:11:23;;;;;;;4.30;1.80;;;12.00;51.70;;;;;;5004582;28;20185;-65
2023/06/14 11:13:52;;;;;;;4.80;2.00;;;11.90;51.70;;;;;;5005851;28;20205;-65
2023/06/14 11:16:19;;;;;;;5.40;2.27;;;11.90;52.20;;;;;;5001177;28;20272;-65
2023/06/14 11:18:47;;;;;;;3.37;1.70;;;11.80;52.50;;;;;;5007376;28;20187;-66
2023/06/14 11:21:21;;;;;;;4.40;2.17;;;11.80;52.40;;;;;;5004541;28;20240;-65
2023/06/14 11:23:52;;;;;;;3.53;1.70;;;11.70;52.90;;;;;;5002458;28;20192;-66
2023/06/14 11:26:30;;;;;;;4.03;2.20;;;11.70;53.20;;;;;;5001090;28;20181;-66
2023/06/14 11:28:59;;;;;;;5.70;2.00;;;11.70;53.20;;;;;;5003999;28;20185;-65
2023/06/14 11:31:28;;;;;;;4.63;2.23;;;11.70;53.30;;;;;;5000684;28;20185;-65
2023/06/14 11:33:59;;;;;;;5.37;1.80;;;11.70;53.50;;;;;;5006905;28;20670;-65
2023/06/14 11:36:31;;;;;;;3.53;1.90;;;11.70;53.60;;;;;;4999969;28;20185;-65
2023/06/14 11:39:08;;;;;;;5.87;2.53;;;11.70;53.60;;;;;;5000846;28;20186;-66
2023/06/14 11:41:44;;;;;;;6.57;2.33;;;11.70;53.50;;;;;;4999220;28;20189;-68
2023/06/14 11:44:12;;;;;;;6.03;1.87;;;11.70;53.60;;;;;;5005525;28;20187;-66
2023/06/14 11:46:40;;;;;;;4.03;2.03;;;11.60;53.90;;;;;;5005976;28;20170;-67
2023/06/14 11:49:09;;;;;;;7.33;2.27;;;11.70;53.90;;;;;;5005253;28;20188;-66
2023/06/14 11:51:37;;;;;;;4.03;1.93;;;11.70;54.10;;;;;;5004350;28;20173;-66
2023/06/14 11:54:06;;;;;;;5.10;2.10;;;11.80;53.90;;;;;;5002499;28;20582;-66
2023/06/14 11:56:34;;;;;;;3.43;1.80;;;11.80;54.00;;;;;;5007376;28;20189;-67
2023/06/14 11:59:03;;;;;;;5.23;2.17;;;11.80;54.30;;;;;;5004108;28;20218;-65
2023/06/14 12:01:31;;;;;;;4.90;1.80;;;11.90;54.00;;;;;;5003737;28;20200;-67
2023/06/14 12:04:00;;;;;;;6.33;1.87;;;12.00;53.70;;;;;;5001227;28;20268;-68
2023/06/14 12:06:32;;;;;;;4.43;1.70;;;12.00;53.90;;;;;;5002819;28;20264;-67
2023/06/14 12:09:02;;;;;;;5.40;1.63;;;11.90;54.00;;;;;;5006289;28;20655;-67
2023/06/14 12:11:36;;;;;;;6.13;2.03;;;11.90;54.50;;;;;;5008670;28;20219;-66
2023/06/14 12:14:08;;;;;;;3.77;1.70;;;11.90;54.50;;;;;;4985679;28;20225;-66
2023/06/14 12:16:38;;;;;;;4.33;2.07;;;11.90;54.60;;;;;;4998580;28;20189;-66
2023/06/14 12:19:17;;;;;;;4.40;1.87;;;11.90;54.80;;;;;;5004233;28;20181;-66
2023/06/14 12:21:48;;;;;;;5.83;1.77;;;11.90;54.80;;;;;;5001279;28;20174;-66
2023/06/14 12:24:15;;;;;;;4.47;1.80;;;11.90;54.90;;;;;;5006359;28;20177;-66
2023/06/14 12:26:43;;;;;;;4.90;1.90;;;11.80;55.10;;;;;;5005945;28;20185;-66
2023/06/14 12:29:12;;;;;;;6.07;1.90;;;11.80;55.20;;;;;;4998439;28;20251;-66
2023/06/14 12:31:39;;;;;;;2.77;1.57;;;11.80;55.30;;;;;;4998605;28;20227;-68
2023/06/14 12:34:07;;;;;;;6.47;1.77;;;11.80;55.40;;;;;;5005584;28;20197;-65
2023/06/14 12:36:39;;;;;;;6.53;1.63;;;11.80;55.60;;;;;;4995407;28;20232;-67
2023/06/14 12:39:08;;;;;;;3.40;1.50;;;11.70;55.70;;;;;;5003937;28;20190;-65
2023/06/14 12:41:36;;;;;;;4.07;1.50;;;11.70;56.00;;;;;;5005880;28;20643;-65
2023/06/14 12:44:06;;;;;;;4.07;1.77;;;11.70;56.20;;;;;;5003307;28;20200;-66
2023/06/14 12:46:34;;;;;;;8.27;1.80;;;11.70;56.20;;;;;;5002517;28;20185;-66
2023/06/14 12:49:02;;;;;;;3.73;1.60;;;11.60;56.20;;;;;;5002321;28;20193;-66
2023/06/14 12:51:29;;;;;;;7.47;1.80;;;11.60;56.70;;;;;;4997585;28;20182;-66
2023/06/14 12:53:57;;;;;;;3.67;1.70;;;11.60;56.60;;;;;;5000480;28;20208;-66
2023/06/14 12:56:24;;;;;;;4.73;1.40;;;11.60;56.40;;;;;;5008585;28;20193;-65
2023/06/14 12:58:52;;;;;;;3.00;1.50;;;11.70;56.10;;;;;;5006099;28;20196;-66